Time;durP1;ratioP1;P1;durP2;ratioP2;P2;SDS_P1;SDS_P2;PMS_P1;PMS_P2;Temp;Humidity;BMP_temperature;BMP_pressure;BME280_temperature;BME280_humidity;BME280_pressure;Samples;Min_cycle;Max_cycle;Signal;HPM_P1;HPM_P2
2021/09/06 00:01:50;;;;;;;;;12.00;12.00;;;;;;;;5030161;28;45388;-82
2021/09/06 00:04:15;;;;;;;;;13.33;13.33;;;;;;;;5033613;28;46192;-82
2021/09/06 00:06:41;;;;;;;;;11.67;11.33;;;;;;;;5032201;28;45833;-82
2021/09/06 00:09:07;;;;;;;;;17.50;13.50;;;;;;;;5034135;28;45900;-82
2021/09/06 00:11:32;;;;;;;;;15.25;12.25;;;;;;;;5032830;28;45554;-82
2021/09/06 00:13:57;;;;;;;;;17.00;14.67;;;;;;;;5033459;28;46153;-81
2021/09/06 00:16:23;;;;;;;;;14.25;13.25;;;;;;;;5036387;28;45336;-82
2021/09/06 00:18:48;;;;;;;;;14.00;12.67;;;;;;;;5032162;28;45799;-82
2021/09/06 00:21:13;;;;;;;;;17.00;14.67;;;;;;;;5033016;28;45429;-83
2021/09/06 00:23:38;;;;;;;;;14.25;14.25;;;;;;;;5032650;28;45845;-82
2021/09/06 00:26:04;;;;;;;;;16.00;12.67;;;;;;;;5033096;28;49132;-81
2021/09/06 00:28:29;;;;;;;;;16.50;12.75;;;;;;;;5036834;28;45357;-83
2021/09/06 00:30:55;;;;;;;;;16.00;12.33;;;;;;;;5034162;28;45442;-82
2021/09/06 00:33:20;;;;;;;;;12.00;12.00;;;;;;;;5030891;28;47177;-82
2021/09/06 00:35:47;;;;;;;;;13.00;13.00;;;;;;;;5034209;28;45480;-81
2021/09/06 00:38:12;;;;;;;;;13.25;13.25;;;;;;;;5032860;28;45527;-82
2021/09/06 00:40:37;;;;;;;;;13.75;13.50;;;;;;;;5033755;28;45519;-81
2021/09/06 00:43:03;;;;;;;;;16.00;13.00;;;;;;;;5033755;28;46536;-82
2021/09/06 00:45:28;;;;;;;;;14.50;14.25;;;;;;;;5032269;28;45481;-82
2021/09/06 00:47:53;;;;;;;;;15.25;13.00;;;;;;;;5031528;28;45455;-82
2021/09/06 00:50:19;;;;;;;;;12.33;12.33;;;;;;;;5032370;28;45447;-82
2021/09/06 00:52:46;;;;;;;;;12.50;12.50;;;;;;;;5034981;28;46318;-82
2021/09/06 00:55:12;;;;;;;;;14.00;12.75;;;;;;;;5034053;28;45396;-82
2021/09/06 00:57:37;;;;;;;;;10.00;10.00;;;;;;;;5031882;28;45506;-82
2021/09/06 01:00:04;;;;;;;;;14.00;14.00;;;;;;;;5032698;28;45616;-81
2021/09/06 01:02:29;;;;;;;;;14.00;14.00;;;;;;;;5031835;28;46537;-82
2021/09/06 01:04:54;;;;;;;;;16.00;12.67;;;;;;;;5031998;28;45728;-82
2021/09/06 01:07:19;;;;;;;;;11.00;11.00;;;;;;;;5034801;28;45596;-82
2021/09/06 01:09:45;;;;;;;;;15.75;14.50;;;;;;;;5034024;28;45387;-82
2021/09/06 01:12:11;;;;;;;;;15.50;15.25;;;;;;;;5031857;28;45567;-82
2021/09/06 01:14:36;;;;;;;;;17.25;14.25;;;;;;;;5032101;28;45636;-82
2021/09/06 01:17:01;;;;;;;;;14.33;14.33;;;;;;;;5031067;28;45365;-82
2021/09/06 01:19:27;;;;;;;;;18.00;15.75;;;;;;;;5035613;28;45403;-81
2021/09/06 01:21:52;;;;;;;;;14.00;12.00;;;;;;;;5030192;28;46166;-82
2021/09/06 01:24:17;;;;;;;;;13.67;13.67;;;;;;;;5032409;28;45444;-82
2021/09/06 01:26:44;;;;;;;;;15.25;13.25;;;;;;;;5031512;28;45482;-82
2021/09/06 01:29:09;;;;;;;;;12.25;12.25;;;;;;;;5033575;28;45457;-82
2021/09/06 01:31:34;;;;;;;;;13.00;12.00;;;;;;;;5034973;28;45264;-81
2021/09/06 01:33:59;;;;;;;;;16.67;14.33;;;;;;;;5031247;28;45372;-82
2021/09/06 01:36:24;;;;;;;;;13.67;12.67;;;;;;;;5033112;28;45560;-82
2021/09/06 01:38:50;;;;;;;;;15.00;13.33;;;;;;;;5028794;28;45668;-82
2021/09/06 01:41:15;;;;;;;;;16.00;16.00;;;;;;;;5030185;28;45370;-82
2021/09/06 01:43:40;;;;;;;;;14.33;14.33;;;;;;;;5025005;28;46061;-82
2021/09/06 01:46:05;;;;;;;;;15.33;12.33;;;;;;;;5033066;28;45273;-82
2021/09/06 01:48:31;;;;;;;;;18.67;16.00;;;;;;;;5031692;28;45978;-82
2021/09/06 01:50:56;;;;;;;;;18.75;16.25;;;;;;;;5031254;28;45478;-82
2021/09/06 01:53:21;;;;;;;;;16.00;15.67;;;;;;;;5030251;28;45470;-82
2021/09/06 01:55:46;;;;;;;;;19.67;18.00;;;;;;;;5033483;28;45157;-82
2021/09/06 01:58:11;;;;;;;;;18.00;15.00;;;;;;;;5031767;28;45307;-83
2021/09/06 02:00:37;;;;;;;;;21.33;16.33;;;;;;;;5031161;28;45669;-82
2021/09/06 02:03:02;;;;;;;;;15.33;15.00;;;;;;;;5031461;28;45339;-82
2021/09/06 02:05:27;;;;;;;;;15.33;15.33;;;;;;;;5031118;28;45501;-82
2021/09/06 02:07:52;;;;;;;;;18.33;15.00;;;;;;;;5032462;28;45656;-81
2021/09/06 02:10:18;;;;;;;;;15.33;14.67;;;;;;;;5033629;28;45242;-82
2021/09/06 02:12:43;;;;;;;;;17.00;16.00;;;;;;;;5030942;28;45885;-82
2021/09/06 02:15:08;;;;;;;;;15.75;15.50;;;;;;;;5031165;28;45509;-82
2021/09/06 02:17:34;;;;;;;;;16.75;16.75;;;;;;;;5031550;28;45584;-82
2021/09/06 02:19:59;;;;;;;;;17.00;16.33;;;;;;;;5031665;28;46127;-82
2021/09/06 02:22:24;;;;;;;;;17.00;15.67;;;;;;;;5032621;28;45739;-82
2021/09/06 02:24:49;;;;;;;;;15.67;14.33;;;;;;;;5030881;28;45467;-82
2021/09/06 02:27:14;;;;;;;;;13.33;12.67;;;;;;;;5032569;28;45327;-81
2021/09/06 02:29:40;;;;;;;;;16.00;15.67;;;;;;;;5030986;28;46173;-82
2021/09/06 02:32:05;;;;;;;;;15.00;14.00;;;;;;;;5029557;28;45591;-82
2021/09/06 02:34:30;;;;;;;;;18.25;16.50;;;;;;;;5035103;28;45492;-82
2021/09/06 02:36:55;;;;;;;;;18.67;14.33;;;;;;;;5031070;28;45288;-82
2021/09/06 02:39:21;;;;;;;;;17.67;17.00;;;;;;;;5030357;28;46057;-82
2021/09/06 02:41:46;;;;;;;;;15.00;15.00;;;;;;;;5030465;28;45391;-82
2021/09/06 02:44:11;;;;;;;;;18.67;17.00;;;;;;;;5030793;28;45460;-82
2021/09/06 02:46:36;;;;;;;;;20.67;17.00;;;;;;;;5034061;28;45502;-82
2021/09/06 02:49:01;;;;;;;;;14.00;14.00;;;;;;;;5030503;28;46145;-82
2021/09/06 02:51:27;;;;;;;;;19.00;17.33;;;;;;;;5030035;28;45480;-82
2021/09/06 02:53:52;;;;;;;;;17.00;16.50;;;;;;;;5030542;28;45433;-82
2021/09/06 02:56:18;;;;;;;;;18.25;16.25;;;;;;;;5029754;28;45467;-82
2021/09/06 02:58:43;;;;;;;;;17.00;15.33;;;;;;;;5032917;28;45751;-82
2021/09/06 03:01:08;;;;;;;;;18.67;17.33;;;;;;;;5031560;28;45336;-80
2021/09/06 03:03:33;;;;;;;;;22.00;15.00;;;;;;;;5030787;28;45574;-82
2021/09/06 03:05:59;;;;;;;;;19.00;18.33;;;;;;;;5032153;28;45402;-81
2021/09/06 03:08:24;;;;;;;;;22.75;18.50;;;;;;;;5032199;28;45507;-82
2021/09/06 03:10:49;;;;;;;;;24.00;18.00;;;;;;;;5032201;28;45328;-82
2021/09/06 03:13:14;;;;;;;;;24.67;20.67;;;;;;;;5032479;28;45479;-81
2021/09/06 03:15:40;;;;;;;;;24.67;20.00;;;;;;;;5030410;28;45345;-82
2021/09/06 03:18:05;;;;;;;;;25.00;20.67;;;;;;;;5030109;28;45337;-82
2021/09/06 03:20:30;;;;;;;;;25.33;19.33;;;;;;;;5029878;28;45458;-82
2021/09/06 03:22:55;;;;;;;;;23.33;23.33;;;;;;;;5030738;28;45582;-82
2021/09/06 03:25:20;;;;;;;;;21.33;18.00;;;;;;;;5033534;28;45336;-81
2021/09/06 03:27:46;;;;;;;;;24.33;23.00;;;;;;;;5029750;28;45402;-81
2021/09/06 03:30:11;;;;;;;;;22.67;22.00;;;;;;;;5029985;28;45522;-82
2021/09/06 03:32:36;;;;;;;;;26.25;21.75;;;;;;;;5029428;28;45326;-82
2021/09/06 03:35:02;;;;;;;;;22.67;22.33;;;;;;;;5030750;28;45484;-82
2021/09/06 03:37:27;;;;;;;;;24.75;23.75;;;;;;;;5032129;28;47046;-82
2021/09/06 03:39:52;;;;;;;;;21.00;20.67;;;;;;;;5029178;28;45317;-82
2021/09/06 03:42:17;;;;;;;;;25.33;22.00;;;;;;;;5033086;28;45548;-82
2021/09/06 03:44:43;;;;;;;;;23.67;22.33;;;;;;;;5034065;28;45384;-81
2021/09/06 03:47:08;;;;;;;;;27.00;21.00;;;;;;;;5033450;28;45965;-82
2021/09/06 03:49:33;;;;;;;;;23.67;20.00;;;;;;;;5036502;28;45326;-82
2021/09/06 03:51:59;;;;;;;;;21.00;19.25;;;;;;;;5033414;28;45510;-82
2021/09/06 03:54:24;;;;;;;;;24.67;22.33;;;;;;;;5033218;28;45422;-82
2021/09/06 03:56:49;;;;;;;;;23.67;20.00;;;;;;;;5032704;28;47416;-82
2021/09/06 03:59:14;;;;;;;;;22.33;20.67;;;;;;;;5033304;28;45319;-82
2021/09/06 04:01:40;;;;;;;;;19.00;16.50;;;;;;;;5033857;28;45539;-82
2021/09/06 04:04:05;;;;;;;;;22.00;21.00;;;;;;;;5034276;28;45405;-81
2021/09/06 04:06:30;;;;;;;;;22.33;19.00;;;;;;;;5032863;28;45407;-82
2021/09/06 04:08:55;;;;;;;;;25.33;23.33;;;;;;;;5031915;28;45390;-81
2021/09/06 04:11:21;;;;;;;;;24.00;21.33;;;;;;;;5032806;28;45303;-82
2021/09/06 04:13:46;;;;;;;;;23.50;18.75;;;;;;;;5035936;28;45520;-82
2021/09/06 04:16:12;;;;;;;;;24.00;21.25;;;;;;;;5033343;28;47562;-82
2021/09/06 04:18:37;;;;;;;;;22.00;20.33;;;;;;;;5032968;28;45521;-82
2021/09/06 04:21:02;;;;;;;;;21.75;20.50;;;;;;;;5032517;28;45374;-82
2021/09/06 04:23:28;;;;;;;;;20.75;19.75;;;;;;;;5033549;28;45414;-82
2021/09/06 04:25:53;;;;;;;;;21.75;18.75;;;;;;;;5034542;28;46061;-82
2021/09/06 04:28:18;;;;;;;;;24.33;22.67;;;;;;;;5036641;28;45380;-82
2021/09/06 04:30:43;;;;;;;;;23.33;21.00;;;;;;;;5032595;28;45611;-82
2021/09/06 04:33:09;;;;;;;;;23.67;19.00;;;;;;;;5033125;28;45312;-82
2021/09/06 04:35:34;;;;;;;;;29.67;24.00;;;;;;;;5034148;28;45450;-82
2021/09/06 04:37:59;;;;;;;;;24.67;23.67;;;;;;;;5032894;28;45346;-81
2021/09/06 04:40:24;;;;;;;;;23.00;19.33;;;;;;;;5034566;28;45313;-82
2021/09/06 04:42:50;;;;;;;;;18.25;16.00;;;;;;;;5033154;28;45544;-82
2021/09/06 04:45:16;;;;;;;;;25.67;18.67;;;;;;;;5032531;28;46319;-82
2021/09/06 04:47:42;;;;;;;;;18.50;17.50;;;;;;;;5033095;28;51397;-82
2021/09/06 04:50:07;;;;;;;;;20.00;18.25;;;;;;;;5031552;28;45605;-81
2021/09/06 04:52:32;;;;;;;;;19.75;19.75;;;;;;;;5035885;28;45501;-81
2021/09/06 04:54:58;;;;;;;;;23.00;18.00;;;;;;;;5031804;28;49031;-81
2021/09/06 04:57:23;;;;;;;;;20.33;18.67;;;;;;;;5031996;28;45582;-82
2021/09/06 04:59:48;;;;;;;;;23.50;21.25;;;;;;;;5032429;28;45625;-82
2021/09/06 05:02:14;;;;;;;;;23.00;21.33;;;;;;;;5032090;28;46459;-80
2021/09/06 05:04:39;;;;;;;;;22.00;18.33;;;;;;;;5034108;28;46314;-81
2021/09/06 05:07:04;;;;;;;;;22.67;21.33;;;;;;;;5033554;28;45469;-82
2021/09/06 05:09:29;;;;;;;;;22.67;20.33;;;;;;;;5031856;28;45788;-82
2021/09/06 05:11:54;;;;;;;;;17.33;16.67;;;;;;;;5031731;28;45622;-81
2021/09/06 05:14:20;;;;;;;;;23.33;19.67;;;;;;;;5031973;28;45526;-82
2021/09/06 05:16:45;;;;;;;;;24.75;20.25;;;;;;;;5034505;28;45367;-82
2021/09/06 05:19:10;;;;;;;;;23.00;20.33;;;;;;;;5027006;28;45420;-82
2021/09/06 05:21:35;;;;;;;;;21.00;18.00;;;;;;;;5031167;28;45565;-81
2021/09/06 05:24:02;;;;;;;;;25.50;20.75;;;;;;;;5031451;28;46002;-82
2021/09/06 05:26:27;;;;;;;;;22.25;19.25;;;;;;;;5032170;28;45963;-82
2021/09/06 05:28:52;;;;;;;;;20.67;18.33;;;;;;;;5031594;28;45447;-82
2021/09/06 05:31:18;;;;;;;;;22.25;19.00;;;;;;;;5033262;28;45467;-81
2021/09/06 05:33:43;;;;;;;;;19.50;17.50;;;;;;;;5031607;28;45505;-80
2021/09/06 05:36:12;;;;;;;;;20.75;19.25;;;;;;;;5031427;28;45676;-82
2021/09/06 05:38:37;;;;;;;;;19.25;18.50;;;;;;;;5030680;28;45543;-82
2021/09/06 05:41:03;;;;;;;;;22.00;20.33;;;;;;;;5031117;28;45403;-82
2021/09/06 05:43:28;;;;;;;;;19.33;18.00;;;;;;;;5035252;28;48175;-82
2021/09/06 05:45:53;;;;;;;;;20.33;19.00;;;;;;;;5032501;28;45681;-82
2021/09/06 05:48:18;;;;;;;;;23.33;18.67;;;;;;;;5031378;28;45544;-82
2021/09/06 05:50:43;;;;;;;;;21.33;20.67;;;;;;;;5032885;28;45526;-81
2021/09/06 05:53:11;;;;;;;;;20.00;18.75;;;;;;;;5031558;28;46462;-82
2021/09/06 05:55:36;;;;;;;;;21.00;20.25;;;;;;;;5034345;28;45419;-82
2021/09/06 05:58:01;;;;;;;;;21.00;18.33;;;;;;;;5030922;28;45368;-82
2021/09/06 06:00:26;;;;;;;;;24.33;20.33;;;;;;;;5031618;28;45461;-82
2021/09/06 06:02:51;;;;;;;;;22.67;19.67;;;;;;;;5029967;28;47108;-82
2021/09/06 06:05:17;;;;;;;;;20.67;20.67;;;;;;;;5030075;28;45849;-81
2021/09/06 06:07:42;;;;;;;;;19.33;18.67;;;;;;;;5034157;28;45443;-82
2021/09/06 06:10:07;;;;;;;;;20.00;18.67;;;;;;;;5026498;28;45396;-81
2021/09/06 06:12:33;;;;;;;;;19.75;19.75;;;;;;;;5030550;28;48047;-82
2021/09/06 06:14:58;;;;;;;;;19.33;19.33;;;;;;;;5030919;28;45390;-82
2021/09/06 06:17:24;;;;;;;;;21.00;21.00;;;;;;;;5031308;28;45263;-81
2021/09/06 06:19:49;;;;;;;;;24.75;19.75;;;;;;;;5033608;28;45534;-81
2021/09/06 06:22:15;;;;;;;;;21.75;18.75;;;;;;;;5032992;28;45392;-81
2021/09/06 06:24:40;;;;;;;;;22.33;21.33;;;;;;;;5030876;28;45319;-82
2021/09/06 06:27:05;;;;;;;;;21.67;19.33;;;;;;;;5030499;28;45411;-82
2021/09/06 06:29:30;;;;;;;;;22.00;19.00;;;;;;;;5029225;28;45545;-81
2021/09/06 06:31:56;;;;;;;;;19.00;19.00;;;;;;;;5030653;28;47354;-81
2021/09/06 06:34:21;;;;;;;;;20.75;20.50;;;;;;;;5032850;28;45441;-82
2021/09/06 06:36:46;;;;;;;;;16.33;16.33;;;;;;;;5029884;28;45326;-81
2021/09/06 06:39:12;;;;;;;;;20.33;19.33;;;;;;;;5030829;28;45380;-82
2021/09/06 06:41:37;;;;;;;;;19.50;18.75;;;;;;;;5026296;28;47348;-81
2021/09/06 06:44:04;;;;;;;;;22.00;18.25;;;;;;;;5026373;28;45291;-81
2021/09/06 06:46:29;;;;;;;;;21.75;17.25;;;;;;;;5028200;28;45691;-82
2021/09/06 06:48:54;;;;;;;;;20.00;19.75;;;;;;;;5025450;28;45669;-81
2021/09/06 06:51:19;;;;;;;;;19.33;17.67;;;;;;;;5025751;28;46689;-82
2021/09/06 06:53:45;;;;;;;;;22.67;20.67;;;;;;;;5029036;28;46445;-84
2021/09/06 06:56:11;;;;;;;;;22.00;20.33;;;;;;;;5028925;28;45646;-82
2021/09/06 06:58:37;;;;;;;;;19.25;17.75;;;;;;;;5026753;28;45681;-81
2021/09/06 07:01:02;;;;;;;;;21.67;20.67;;;;;;;;5030279;28;48087;-81
2021/09/06 07:03:27;;;;;;;;;19.00;16.33;;;;;;;;5030687;28;45531;-82
2021/09/06 07:05:52;;;;;;;;;15.00;15.00;;;;;;;;5031036;28;45444;-82
2021/09/06 07:08:18;;;;;;;;;19.00;17.25;;;;;;;;5030592;28;45463;-82
2021/09/06 07:10:43;;;;;;;;;25.33;20.67;;;;;;;;5031621;28;48133;-82
2021/09/06 07:13:08;;;;;;;;;21.33;17.00;;;;;;;;5031411;28;45428;-81
2021/09/06 07:15:33;;;;;;;;;18.00;16.67;;;;;;;;5029819;28;45627;-82
2021/09/06 07:17:59;;;;;;;;;17.33;17.33;;;;;;;;5031005;28;45523;-82
2021/09/06 07:20:24;;;;;;;;;18.00;18.00;;;;;;;;5030748;28;45342;-83
2021/09/06 07:22:49;;;;;;;;;15.50;14.25;;;;;;;;5032577;28;45562;-82
2021/09/06 07:25:15;;;;;;;;;21.00;16.33;;;;;;;;5033082;28;45532;-83
2021/09/06 07:27:40;;;;;;;;;19.67;16.00;;;;;;;;5026238;28;45447;-82
2021/09/06 07:30:06;;;;;;;;;15.50;15.50;;;;;;;;5032237;28;45587;-82
2021/09/06 07:32:31;;;;;;;;;19.50;17.75;;;;;;;;5030606;28;45376;-82
2021/09/06 07:34:56;;;;;;;;;20.00;16.67;;;;;;;;5033157;28;45582;-82
2021/09/06 07:37:21;;;;;;;;;20.00;17.00;;;;;;;;5034362;28;45374;-83
2021/09/06 07:39:47;;;;;;;;;17.00;16.00;;;;;;;;5008271;28;46104;-82
2021/09/06 07:42:12;;;;;;;;;18.00;17.50;;;;;;;;5024483;28;45437;-82
2021/09/06 07:44:38;;;;;;;;;19.75;19.25;;;;;;;;5020629;28;45312;-82
2021/09/06 07:47:03;;;;;;;;;20.33;18.33;;;;;;;;5030202;28;45527;-83
2021/09/06 07:49:28;;;;;;;;;22.67;19.33;;;;;;;;5032422;28;48415;-83
2021/09/06 07:51:53;;;;;;;;;24.00;20.00;;;;;;;;5029599;28;45547;-83
2021/09/06 07:54:19;;;;;;;;;23.67;19.67;;;;;;;;5028850;28;45461;-83
2021/09/06 07:56:46;;;;;;;;;21.50;20.75;;;;;;;;5029342;28;45362;-82
2021/09/06 07:59:11;;;;;;;;;22.75;18.50;;;;;;;;5029995;28;46143;-83
2021/09/06 08:01:36;;;;;;;;;19.75;17.00;;;;;;;;5032913;28;45479;-82
2021/09/06 08:04:02;;;;;;;;;20.00;16.25;;;;;;;;5030774;28;45474;-82
2021/09/06 08:06:27;;;;;;;;;22.00;20.00;;;;;;;;5032282;28;45385;-83
2021/09/06 08:08:53;;;;;;;;;19.33;18.33;;;;;;;;5028283;28;48409;-82
2021/09/06 08:11:18;;;;;;;;;21.25;20.00;;;;;;;;5029450;28;45472;-81
2021/09/06 08:13:43;;;;;;;;;22.67;16.00;;;;;;;;5031281;28;45456;-83
2021/09/06 08:16:08;;;;;;;;;26.67;19.33;;;;;;;;5031075;28;45406;-83
2021/09/06 08:18:33;;;;;;;;;22.00;20.67;;;;;;;;5029529;28;46671;-82
2021/09/06 08:20:59;;;;;;;;;21.75;18.75;;;;;;;;5029248;28;45374;-83
2021/09/06 08:23:24;;;;;;;;;18.33;18.33;;;;;;;;5028615;28;45448;-82
2021/09/06 08:25:49;;;;;;;;;23.00;21.33;;;;;;;;5031253;28;45269;-83
2021/09/06 08:28:14;;;;;;;;;20.33;18.33;;;;;;;;5033064;28;46319;-82
2021/09/06 08:30:40;;;;;;;;;17.75;17.75;;;;;;;;5033197;28;45429;-81
2021/09/06 08:33:05;;;;;;;;;20.25;20.25;;;;;;;;5033186;28;45431;-83
2021/09/06 08:35:30;;;;;;;;;21.00;19.67;;;;;;;;5032084;28;45381;-82
2021/09/06 08:37:56;;;;;;;;;22.50;17.75;;;;;;;;5032350;28;46310;-82
2021/09/06 08:40:21;;;;;;;;;27.33;22.00;;;;;;;;5035246;28;45280;-82
2021/09/06 08:42:46;;;;;;;;;20.00;15.25;;;;;;;;5032375;28;45473;-81
2021/09/06 08:45:12;;;;;;;;;24.67;20.00;;;;;;;;5032791;28;45357;-82
2021/09/06 08:47:38;;;;;;;;;21.25;18.50;;;;;;;;5031530;28;46620;-82
2021/09/06 08:50:05;;;;;;;;;22.75;18.00;;;;;;;;5032216;28;45171;-81
2021/09/06 08:52:30;;;;;;;;;21.00;17.75;;;;;;;;5032067;28;45361;-82
2021/09/06 08:54:55;;;;;;;;;23.67;21.67;;;;;;;;5031801;28;45366;-82
2021/09/06 08:57:20;;;;;;;;;19.33;18.33;;;;;;;;5033505;28;45633;-81
2021/09/06 08:59:47;;;;;;;;;21.00;19.33;;;;;;;;5031001;28;45615;-81
2021/09/06 09:02:20;;;;;;;;;20.75;18.00;;;;;;;;5032549;28;45560;-81
2021/09/06 09:04:56;;;;;;;;;20.00;18.00;;;;;;;;5033281;28;45482;-80
2021/09/06 09:07:24;;;;;;;;;23.75;20.75;;;;;;;;5034509;28;45462;-81
2021/09/06 09:09:50;;;;;;;;;17.50;14.75;;;;;;;;5030908;28;48846;-81
2021/09/06 09:12:16;;;;;;;;;16.67;16.00;;;;;;;;5031377;28;45467;-81
2021/09/06 09:14:47;;;;;;;;;20.00;17.25;;;;;;;;5021471;28;45454;-81
2021/09/06 09:17:12;;;;;;;;;18.00;16.75;;;;;;;;5032174;28;46086;-82
2021/09/06 09:19:38;;;;;;;;;22.00;16.00;;;;;;;;5034699;28;45417;-81
2021/09/06 09:22:04;;;;;;;;;18.25;15.75;;;;;;;;5033520;28;45302;-82
2021/09/06 09:24:29;;;;;;;;;16.75;16.25;;;;;;;;5031500;28;45388;-81
2021/09/06 09:26:59;;;;;;;;;14.50;14.00;;;;;;;;5025983;28;45702;-82
2021/09/06 09:29:24;;;;;;;;;16.50;16.50;;;;;;;;5029275;28;45897;-81
2021/09/06 09:31:51;;;;;;;;;15.25;14.00;;;;;;;;5034759;28;46073;-81
2021/09/06 09:34:17;;;;;;;;;17.75;14.50;;;;;;;;5026707;28;45515;-80
2021/09/06 09:36:43;;;;;;;;;14.75;14.50;;;;;;;;5014325;28;45612;-79
2021/09/06 09:39:11;;;;;;;;;13.25;12.00;;;;;;;;5031801;28;45509;-81
2021/09/06 09:41:37;;;;;;;;;13.75;13.00;;;;;;;;5025272;28;45510;-82
2021/09/06 09:44:13;;;;;;;;;12.50;12.50;;;;;;;;5011213;28;45495;-81
2021/09/06 09:46:38;;;;;;;;;16.75;14.00;;;;;;;;5024020;28;46147;-80
2021/09/06 09:49:10;;;;;;;;;5.00;1.75;;;;;;;;5022974;28;45813;-81
2021/09/06 09:51:36;;;;;;;;;16.00;13.50;;;;;;;;5051571;28;45821;-79
2021/09/06 09:54:02;;;;;;;;;15.25;13.50;;;;;;;;5037280;28;45485;-82
2021/09/06 09:56:28;;;;;;;;;16.50;13.00;;;;;;;;5044442;28;45710;-80
2021/09/06 09:58:53;;;;;;;;;15.50;13.00;;;;;;;;5046803;28;45323;-81
2021/09/06 10:01:19;;;;;;;;;14.33;14.00;;;;;;;;5041406;28;45359;-81
2021/09/06 10:03:44;;;;;;;;;13.25;13.25;;;;;;;;5052660;28;44797;-81
2021/09/06 10:06:10;;;;;;;;;12.00;11.00;;;;;;;;5055602;28;46247;-80
2021/09/06 10:08:35;;;;;;;;;16.25;13.50;;;;;;;;5037177;28;45450;-81
2021/09/06 10:11:10;;;;;;;;;13.00;13.00;;;;;;;;5036720;28;45469;-82
2021/09/06 10:13:39;;;;;;;;;12.25;12.25;;;;;;;;5047877;28;44863;-81
2021/09/06 10:16:04;;;;;;;;;13.50;12.25;;;;;;;;5052561;28;47580;-81
2021/09/06 10:18:40;;;;;;;;;13.50;13.00;;;;;;;;5057483;28;45094;-84
2021/09/06 10:21:12;;;;;;;;;11.75;10.00;;;;;;;;5034555;28;45288;-81
2021/09/06 10:23:44;;;;;;;;;12.75;10.75;;;;;;;;5030383;28;45997;-80
2021/09/06 10:26:10;;;;;;;;;12.75;12.25;;;;;;;;5031030;28;45578;-82
2021/09/06 10:28:35;;;;;;;;;11.00;11.00;;;;;;;;5033909;28;45343;-82
2021/09/06 10:31:01;;;;;;;;;13.25;12.75;;;;;;;;5028019;28;45371;-81
2021/09/06 10:33:28;;;;;;;;;13.75;11.50;;;;;;;;5026491;28;45500;-81
2021/09/06 10:36:02;;;;;;;;;11.25;11.25;;;;;;;;5031218;28;45552;-82
2021/09/06 10:38:36;;;;;;;;;12.00;12.00;;;;;;;;5030485;28;45742;-81
2021/09/06 10:41:07;;;;;;;;;12.25;12.25;;;;;;;;5029396;28;45365;-82
2021/09/06 10:43:41;;;;;;;;;13.50;13.00;;;;;;;;5030685;28;45315;-82
2021/09/06 10:46:06;;;;;;;;;13.50;11.75;;;;;;;;5033172;28;45653;-81
2021/09/06 10:48:34;;;;;;;;;12.67;12.00;;;;;;;;5030561;28;45402;-82
2021/09/06 10:51:00;;;;;;;;;13.75;12.00;;;;;;;;5029888;28;45553;-81
2021/09/06 10:53:26;;;;;;;;;13.00;12.25;;;;;;;;5032080;28;45442;-81
2021/09/06 10:55:53;;;;;;;;;14.00;12.25;;;;;;;;5031782;28;45959;-81
2021/09/06 10:58:24;;;;;;;;;12.00;12.00;;;;;;;;5031139;28;45355;-82
2021/09/06 11:00:53;;;;;;;;;16.25;13.25;;;;;;;;5030177;28;49033;-81
2021/09/06 11:03:22;;;;;;;;;15.00;12.50;;;;;;;;5030565;28;45383;-81
2021/09/06 11:05:54;;;;;;;;;13.50;11.50;;;;;;;;5028899;28;48671;-81
2021/09/06 11:08:27;;;;;;;;;10.75;10.75;;;;;;;;5030126;28;45460;-82
2021/09/06 11:10:52;;;;;;;;;11.25;11.25;;;;;;;;5031275;28;45447;-82
2021/09/06 11:13:18;;;;;;;;;12.00;12.00;;;;;;;;5030682;28;45557;-83
2021/09/06 11:15:43;;;;;;;;;12.00;11.75;;;;;;;;5024691;28;45443;-82
2021/09/06 11:18:09;;;;;;;;;10.67;10.67;;;;;;;;5024577;28;46029;-82
2021/09/06 11:20:36;;;;;;;;;12.25;12.25;;;;;;;;5027033;28;45454;-81
2021/09/06 11:23:08;;;;;;;;;16.50;13.00;;;;;;;;5027738;28;45334;-83
2021/09/06 11:25:35;;;;;;;;;10.75;10.75;;;;;;;;5029300;28;46516;-81
2021/09/06 11:28:08;;;;;;;;;11.50;11.50;;;;;;;;5029822;28;45468;-83
2021/09/06 11:30:37;;;;;;;;;12.00;12.00;;;;;;;;5023069;28;45406;-84
2021/09/06 11:33:05;;;;;;;;;11.00;11.00;;;;;;;;5030866;28;45283;-84
2021/09/06 11:35:31;;;;;;;;;12.25;12.25;;;;;;;;5029890;28;46313;-83
2021/09/06 11:37:57;;;;;;;;;10.50;10.50;;;;;;;;5030657;28;45312;-83
2021/09/06 11:40:22;;;;;;;;;11.50;10.50;;;;;;;;5031324;28;45570;-82
2021/09/06 11:42:48;;;;;;;;;12.00;11.25;;;;;;;;5024778;28;45453;-82
2021/09/06 11:45:16;;;;;;;;;12.50;11.25;;;;;;;;5030454;28;46140;-83
2021/09/06 11:47:41;;;;;;;;;11.50;10.25;;;;;;;;5029428;28;45864;-83
2021/09/06 11:50:09;;;;;;;;;14.50;13.00;;;;;;;;5031409;28;45621;-82
2021/09/06 11:52:35;;;;;;;;;10.50;10.25;;;;;;;;5033348;28;45348;-82
2021/09/06 11:55:01;;;;;;;;;10.00;10.00;;;;;;;;5030534;28;45997;-84
2021/09/06 11:57:27;;;;;;;;;9.00;9.00;;;;;;;;5028827;28;45458;-84
2021/09/06 11:59:54;;;;;;;;;10.00;10.00;;;;;;;;5029268;28;45843;-84
2021/09/06 12:02:19;;;;;;;;;11.50;10.50;;;;;;;;5020283;28;45414;-83
2021/09/06 12:04:44;;;;;;;;;8.25;8.00;;;;;;;;5035145;28;46001;-82
2021/09/06 12:07:11;;;;;;;;;11.00;10.75;;;;;;;;5028688;28;45459;-84
2021/09/06 12:09:36;;;;;;;;;12.75;9.75;;;;;;;;5032887;28;45449;-84
2021/09/06 12:12:05;;;;;;;;;10.50;10.50;;;;;;;;5034494;28;45323;-84
2021/09/06 12:14:30;;;;;;;;;10.00;9.25;;;;;;;;5032125;28;47645;-83
2021/09/06 12:16:57;;;;;;;;;11.75;10.00;;;;;;;;5032254;28;45618;-83
2021/09/06 12:19:23;;;;;;;;;10.00;10.00;;;;;;;;5035665;28;45366;-83
2021/09/06 12:21:49;;;;;;;;;8.75;8.75;;;;;;;;5033624;28;45410;-84
2021/09/06 12:24:20;;;;;;;;;9.75;9.50;;;;;;;;5031726;28;47160;-81
2021/09/06 12:26:49;;;;;;;;;11.25;11.25;;;;;;;;5031651;28;49073;-84
2021/09/06 12:29:30;;;;;;;;;10.00;10.00;;;;;;;;5033199;28;45425;-84
2021/09/06 12:31:55;;;;;;;;;9.50;9.50;;;;;;;;5032267;28;45726;-84
2021/09/06 12:34:21;;;;;;;;;11.00;9.75;;;;;;;;5034974;28;45924;-84
2021/09/06 12:36:48;;;;;;;;;11.00;9.33;;;;;;;;5032523;28;45443;-83
2021/09/06 12:39:13;;;;;;;;;9.50;9.00;;;;;;;;5031713;28;45539;-84
2021/09/06 12:41:39;;;;;;;;;9.33;9.33;;;;;;;;5032264;28;45371;-83
2021/09/06 12:44:04;;;;;;;;;10.00;8.33;;;;;;;;5032339;28;45356;-83
2021/09/06 12:46:29;;;;;;;;;12.00;11.33;;;;;;;;5036344;28;45531;-84
2021/09/06 12:48:55;;;;;;;;;9.00;9.00;;;;;;;;5032199;28;45553;-82
2021/09/06 12:51:20;;;;;;;;;10.00;10.00;;;;;;;;5031161;28;45553;-83
2021/09/06 12:53:45;;;;;;;;;9.75;9.75;;;;;;;;5033873;28;46238;-86
2021/09/06 12:56:11;;;;;;;;;9.67;9.67;;;;;;;;5032300;28;45528;-84
2021/09/06 12:58:36;;;;;;;;;10.33;10.33;;;;;;;;5035807;28;45360;-81
2021/09/06 13:01:01;;;;;;;;;10.67;10.67;;;;;;;;5031252;28;45676;-84
2021/09/06 13:03:26;;;;;;;;;9.00;9.00;;;;;;;;5032069;28;46108;-83
2021/09/06 13:05:53;;;;;;;;;10.00;10.00;;;;;;;;5032592;28;45655;-85
2021/09/06 13:08:18;;;;;;;;;9.75;8.25;;;;;;;;5032403;28;45594;-85
2021/09/06 13:10:43;;;;;;;;;12.00;9.67;;;;;;;;5033216;28;45302;-84
2021/09/06 13:13:09;;;;;;;;;8.33;8.33;;;;;;;;5026425;28;47137;-84
2021/09/06 13:15:35;;;;;;;;;9.25;7.75;;;;;;;;5031394;28;45476;-84
2021/09/06 13:18:00;;;;;;;;;8.00;8.00;;;;;;;;5032097;28;45482;-81
2021/09/06 13:20:26;;;;;;;;;9.25;9.25;;;;;;;;5031685;28;45483;-82
2021/09/06 13:22:51;;;;;;;;;11.00;10.00;;;;;;;;5033522;28;45994;-85
2021/09/06 13:25:16;;;;;;;;;10.00;10.00;;;;;;;;5032374;28;45502;-82
2021/09/06 13:27:41;;;;;;;;;9.00;9.00;;;;;;;;5031875;28;45422;-83
2021/09/06 13:30:11;;;;;;;;;9.00;9.00;;;;;;;;5032934;28;45507;-82
2021/09/06 13:32:36;;;;;;;;;10.75;10.00;;;;;;;;5031954;28;46135;-82
2021/09/06 13:35:02;;;;;;;;;10.25;9.00;;;;;;;;5032050;28;45406;-83
2021/09/06 13:37:27;;;;;;;;;10.75;9.00;;;;;;;;5035270;28;45287;-83
2021/09/06 13:39:52;;;;;;;;;10.25;9.75;;;;;;;;5031158;28;46039;-83
2021/09/06 13:42:17;;;;;;;;;11.67;10.00;;;;;;;;5030483;28;48017;-83
2021/09/06 13:44:43;;;;;;;;;11.00;11.00;;;;;;;;5030835;28;45284;-82
2021/09/06 13:47:08;;;;;;;;;10.25;8.50;;;;;;;;5030633;28;45446;-83
2021/09/06 13:49:33;;;;;;;;;13.75;10.50;;;;;;;;5034248;28;45299;-83
2021/09/06 13:51:59;;;;;;;;;8.67;8.67;;;;;;;;5016482;28;46477;-84
2021/09/06 13:54:24;;;;;;;;;9.25;8.25;;;;;;;;5020170;28;45336;-83
2021/09/06 13:56:50;;;;;;;;;11.00;9.00;;;;;;;;5031939;28;45292;-84
2021/09/06 13:59:15;;;;;;;;;7.00;7.00;;;;;;;;5017257;28;45839;-83
2021/09/06 14:01:40;;;;;;;;;8.00;8.00;;;;;;;;5015244;28;45964;-84
2021/09/06 14:04:06;;;;;;;;;8.67;7.67;;;;;;;;5014077;28;45408;-84
2021/09/06 14:06:31;;;;;;;;;7.50;7.00;;;;;;;;5019496;28;45450;-85
2021/09/06 14:08:56;;;;;;;;;9.75;9.00;;;;;;;;5016255;28;45410;-85
2021/09/06 14:11:22;;;;;;;;;7.33;7.00;;;;;;;;5017483;28;46146;-85